Latest Coastal Weather Observations for Port Hedland

IDW60701

Issued at 2:25 am WST Wednesday 22 October 2014 (issued every 10 minutes, with the page automatically refreshed every 10 minutes)

About coastal observations | Map of coastal stations | Coastal observations for WA | Marine services | Other Formats
Station Details ID: 004032 Name: PORT HEDLAND AIRPORT Lat: -20.37 Lon: 118.63 Height: 6.4 m
Data from the previous 72 hours. | See also: Recent months at Port Hedland
Date/Time
WST
Temp

°C
Wind Pressure Rain
since 9am
mm
Weather Cloud Vis
km
Sea
Height
m
Swell
Dir
 
Speed
knots
Gust
knots
hPa Trend Height
m
Period
s
Dir
22/02:00am 24.0 SSW 8 10 1011.8 - 0.0 - - 10 - - - -
22/01:30am 23.9 SW 7 10 1012.1 - 0.0 - - 10 - - - -
22/01:00am 23.2 SSW 6 7 1012.5 - 0.0 - - 10 - - - -
22/12:30am 23.4 SW 6 7 1012.6 - 0.0 - - 10 - - - -
22/12:00am 24.5 SSW 6 7 1012.9 - 0.0 - - 10 - - - -
 
Date/Time
WST
Temp

°C
Wind Pressure Rain
since 9am
mm
Weather Cloud Vis
km
Sea
Height
m
Swell
Dir
 
Speed
knots
Gust
knots
hPa Trend Height
m
Period
s
Dir
21/11:30pm 25.9 SW 9 11 1013.1 - 0.0 - - 10 - - - -
21/11:00pm 24.1 WSW 7 8 1013.4 - 0.0 - - 10 - - - -
21/10:30pm 24.7 WSW 8 9 1014.0 - 0.0 - - 10 - - - -
21/10:00pm 26.5 WSW 8 10 1013.9 - 0.0 - - 10 - - - -
21/09:30pm 27.2 WSW 10 12 1014.0 - 0.0 - - 10 - - - -
21/09:00pm 27.6 WSW 10 12 1014.1 - 0.0 - - 10 - - - -
21/08:30pm 28.2 WSW 10 13 1014.0 - 0.0 - - 10 - - - -
21/08:00pm 29.3 WSW 12 16 1013.7 - 0.0 - - 10 - - - -
21/07:30pm 29.6 WSW 13 16 1013.5 - 0.0 - - 10 - - - -
21/07:00pm 30.4 WSW 11 14 1013.1 - 0.0 - - 10 - - - -
21/06:30pm 31.4 WSW 11 13 1012.8 - 0.0 - - 10 - - - -
21/06:00pm 33.2 W 13 16 1012.5 - 0.0 - - 10 - - - -
21/05:30pm 34.1 W 12 15 1012.4 - 0.0 - - 10 - - - -
21/05:00pm 34.9 WNW 13 16 1012.4 - 0.0 - - 10 - - - -
21/04:30pm 35.8 WNW 15 18 1012.3 - 0.0 - - 10 - - - -
21/04:00pm 36.6 WNW 15 19 1012.3 - 0.0 - - 10 - - - -
21/03:30pm 36.4 NW 15 17 1012.3 - 0.0 - - 10 - - - -
21/03:00pm 36.7 NW 14 16 1012.5 F 0.0 Smoke Mostly clear 30 - - - -
21/02:30pm 37.3 NW 13 16 1012.8 - 0.0 - - 10 - - - -
21/02:00pm 36.3 WNW 14 17 1013.0 - 0.0 - - 10 - - - -
21/01:30pm 36.7 NW 13 17 1013.3 - 0.0 - - 10 - - - -
21/01:00pm 36.7 NW 12 15 1013.7 - 0.0 - - 10 - - - -
21/12:30pm 36.7 NW 12 15 1014.1 - 0.0 - - 10 - - - -
21/12:00pm 35.4 NW 12 14 1014.6 R 0.0 Smoke Mostly clear 30 - - - -
21/11:30am 34.4 NW 12 16 1015.1 - 0.0 - - 10 - - - -
21/11:00am 32.4 NW 11 14 1015.5 - 0.0 - - 10 - - - -
21/10:30am 31.4 NW 12 15 1015.8 - 0.0 - - 10 - - - -
21/10:00am 30.7 NNW 12 15 1016.1 - 0.0 - - 10 - - - -
21/09:30am 31.3 NNW 10 13 1016.2 - 0.0 - - 10 - - - -
21/09:00am 30.6 N 9 12 1016.2 S 0.0 Smoke Clear 30 - - - -
21/08:30am 31.2 SW 4 6 1016.2 - 0.0 - - 10 - - - -
21/08:00am 29.4 S 7 9 1016.1 - 0.0 - - 10 - - - -
21/07:30am 27.6 S 9 12 1015.5 - 0.0 - - 10 - - - -
21/07:00am 24.7 S 9 12 1015.4 - 0.0 - - 10 - - - -
21/06:30am 21.8 S 9 11 1015.3 - 0.0 - - 10 - - - -
21/06:00am 20.1 SSW 8 10 1015.1 F 0.0 Fine Clear 30 - - - -
21/05:30am 19.6 SSW 9 11 1014.8 - 0.0 - - 10 - - - -
21/05:00am 19.1 SW 7 9 1014.7 - 0.0 - - 10 - - - -
21/04:30am 19.1 SW 8 9 1014.4 - 0.0 - - 10 - - - -
21/04:00am 18.7 WSW 9 10 1014.2 - 0.0 - - 10 - - - -
21/03:30am 19.5 SW 8 10 1014.3 - 0.0 - - 10 - - - -
21/03:00am 19.1 SW 7 8 1014.2 - 0.0 - - 10 - - - -
21/02:30am 19.2 WSW 7 8 1014.2 - 0.0 - - 10 - - - -
21/02:00am 19.8 WSW 7 9 1014.3 - 0.0 - - 10 - - - -
21/01:30am 20.5 W 8 9 1014.3 - 0.0 - - 10 - - - -
21/01:00am 19.7 WSW 8 9 1014.6 - 0.0 - - 10 - - - -
21/12:30am 19.6 W 6 7 1014.8 - 0.0 - - 10 - - - -
21/12:00am 20.2 W 5 6 1015.0 - 0.0 - - 10 - - - -
 
Date/Time
WST
Temp

°C
Wind Pressure Rain
since 9am
mm
Weather Cloud Vis
km
Sea
Height
m
Swell
Dir
 
Speed
knots
Gust
knots
hPa Trend Height
m
Period
s
Dir
20/11:30pm 20.7 SW 5 6 1015.3 - 0.0 - - 10 - - - -
20/11:00pm 21.2 WSW 6 7 1015.4 - 0.0 - - 10 - - - -
20/10:30pm 21.7 W 5 6 1015.6 - 0.0 - - 10 - - - -
20/10:00pm 22.3 W 6 7 1015.6 - 0.0 - - 10 - - - -
20/09:30pm 23.6 W 8 11 1015.7 - 0.0 - - 10 - - - -
20/09:00pm 24.0 W 8 10 1015.4 - 0.0 - - 10 - - - -
20/08:30pm 24.8 W 10 13 1015.1 - 0.0 - - 10 - - - -
20/08:00pm 24.9 W 10 12 1014.7 - 0.0 - - 10 - - - -
20/07:30pm 25.5 W 10 13 1014.4 - 0.0 - - 10 - - - -
20/07:00pm 25.9 W 10 13 1014.0 - 0.0 - - 10 - - - -
20/06:30pm 26.5 WNW 9 14 1013.5 - 0.0 - - 10 - - - -
20/06:00pm 27.7 WNW 13 16 1013.2 - 0.0 - - 10 - - - -
20/05:30pm 29.4 WNW 13 16 1012.8 - 0.0 - - 10 - - - -
20/05:00pm 30.4 WNW 12 15 1012.6 - 0.0 - - 10 - - - -
20/04:30pm 31.3 WNW 14 17 1012.3 - 0.0 - - 10 - - - -
20/04:00pm 32.2 WNW 14 17 1012.3 - 0.0 - - 10 - - - -
20/03:30pm 32.7 NW 13 17 1012.3 - 0.0 - - 10 - - - -
20/03:00pm 32.1 NW 14 17 1012.5 R 0.0 Fine Mostly clear 30 - - - -
20/02:30pm 32.1 NW 15 18 1012.6 - 0.0 - - 10 - - - -
20/02:00pm 32.5 NW 15 19 1013.0 - 0.0 - - 10 - - - -
20/01:30pm 32.7 NNW 14 19 1013.3 - 0.0 - - 10 - - - -
20/01:00pm 33.5 NNW 13 16 1013.6 - 0.0 - - 10 - - - -
20/12:30pm 33.7 N 12 15 1014.0 - 0.0 - - 10 - - - -
20/12:00pm 33.3 N 12 15 1014.2 S 0.0 Fine Clear 30 - - - -
20/11:30am 33.0 NNW 11 13 1014.5 - 0.0 - - 10 - - - -
20/11:00am 33.4 NNW 10 15 1014.8 - 0.0 - - 10 - - - -
20/10:30am 31.9 NNW 9 15 1015.1 - 0.0 - - 10 - - - -
20/10:00am 31.9 NNW 6 10 1015.4 - 0.0 - - 10 - - - -
20/09:30am 31.8 ESE 3 6 1015.7 - 0.0 - - 10 - - - -
20/09:00am 30.5 SSE 4 6 1015.9 R 0.0 Fine Clear 30 - - - -
20/08:30am 29.2 W 5 7 1015.8 - 0.0 - - 10 - - - -
20/08:00am 27.3 W 7 10 1015.9 - 0.0 - - 10 - - - -
20/07:30am 25.8 W 8 9 1015.6 - 0.0 - - 10 - - - -
20/07:00am 24.2 W 9 11 1015.4 - 0.0 - - 10 - - - -
20/06:30am 21.9 W 7 9 1015.0 - 0.0 - - 10 - - - -
20/06:00am 18.7 W 7 8 1014.7 R 0.0 Fine Clear 30 - - - -
20/05:30am 18.0 W 7 8 1014.5 - 0.0 - - 10 - - - -
20/05:00am 18.3 W 7 8 1014.2 - 0.0 - - 10 - - - -
20/04:30am 18.5 W 8 9 1013.8 - 0.0 - - 10 - - - -
20/04:00am 18.1 W 7 8 1013.5 - 0.0 - - 10 - - - -
20/03:30am 18.2 WNW 6 7 1013.3 - 0.0 - - 10 - - - -
20/03:00am 18.5 W 6 7 1013.2 - 0.0 - - 10 - - - -
20/02:30am 19.0 W 5 6 1013.2 - 0.0 - - 10 - - - -
20/02:00am 19.2 WNW 5 5 1013.2 - 0.0 - - 10 - - - -
20/01:30am 20.1 CALM 0 0 1013.2 - 0.0 - - 10 - - - -
20/01:00am 20.0 W 3 4 1013.3 - 0.0 - - 10 - - - -
20/12:30am 20.5 W 6 7 1013.3 - 0.0 - - 10 - - - -
20/12:00am 20.9 WNW 7 9 1013.5 - 0.0 - - 10 - - - -
 
Date/Time
WST
Temp

°C
Wind Pressure Rain
since 9am
mm
Weather Cloud Vis
km
Sea
Height
m
Swell
Dir
 
Speed
knots
Gust
knots
hPa Trend Height
m
Period
s
Dir
19/11:30pm 21.0 WNW 8 8 1013.7 - 0.0 - - 10 - - - -
19/11:00pm 21.5 WNW 8 9 1013.8 - 0.0 - - 10 - - - -
19/10:30pm 22.5 W 7 8 1014.0 - 0.0 - - 10 - - - -
19/10:00pm 22.9 W 8 10 1014.0 - 0.0 - - 10 - - - -
19/09:30pm 23.6 W 9 13 - - 0.0 - - 10 - - - -
19/09:00pm 23.7 W 8 11 1013.9 - 0.0 - - 10 - - - -
19/08:30pm 23.8 W 9 11 1013.7 - 0.0 - - 10 - - - -
19/08:00pm 24.2 W 9 14 1013.3 - 0.0 - - 10 - - - -
19/07:30pm 24.9 W 14 19 1013.0 - 0.0 - - 10 - - - -
19/07:00pm 25.2 W 11 15 1012.6 - 0.0 - - 10 - - - -
19/06:30pm 25.8 W 13 17 1012.0 - 0.0 - - 10 - - - -
19/06:00pm 26.6 W 14 17 1011.8 - 0.0 - - 10 - - - -
19/05:30pm 27.8 W 14 18 1011.7 - 0.0 - - 10 - - - -
19/05:00pm 28.9 WNW 14 18 1011.5 - 0.0 - - 10 - - - -
19/04:30pm 29.6 WNW 16 19 1011.3 - 0.0 - - 10 - - - -
19/04:00pm 30.5 WNW 16 21 1011.3 - 0.0 - - 10 - - - -
19/03:30pm 30.1 WNW 18 21 1011.3 - 0.0 - - 10 - - - -
19/03:00pm 31.0 NW 18 23 1011.4 - 0.0 - - 10 - - - -
19/02:30pm 31.6 NW 18 23 1011.5 - 0.0 - - 10 - - - -
19/02:00pm 32.5 NW 17 22 1011.7 - 0.0 - - 10 - - - -
19/01:30pm 32.6 WNW 17 22 1011.9 - 0.0 - - 10 - - - -
19/01:00pm 32.6 NW 16 21 1012.2 - 0.0 - - 10 - - - -
19/12:30pm 32.3 NW 17 22 1012.6 - 0.0 - - 10 - - - -
19/12:00pm 32.1 NW 15 19 1013.0 - 0.0 - - 10 - - - -
19/11:30am 32.0 NW 15 20 1013.3 - 0.0 - - 10 - - - -
19/11:00am 31.5 WNW 12 17 1013.7 - 0.0 - - 10 - - - -
19/10:30am 31.3 W 11 16 1014.1 - 0.0 - - 10 - - - -
19/10:00am 30.7 W 11 17 1014.4 - 0.0 - - 10 - - - -
19/09:30am 29.7 WNW 10 12 1014.7 - 0.0 - - 10 - - - -
19/09:00am 28.8 W 12 17 1014.9 - 0.0 - - 10 - - - -
19/08:30am 27.9 WSW 12 15 1014.9 - 0.0 - - 10 - - - -
19/08:00am 26.6 WSW 13 16 1014.6 - 0.0 - - 10 - - - -
19/07:30am 25.4 W 13 17 1014.5 - 0.0 - - 10 - - - -
19/07:00am 24.0 W 12 14 1014.2 - 0.0 - - 10 - - - -
19/06:30am 22.8 W 9 13 1013.8 - 0.0 - - 10 - - - -
19/06:00am 21.6 W 8 11 1013.4 - 0.0 - - 10 - - - -
19/05:30am 21.3 W 8 10 1013.0 - 0.0 - Partly cloudy 10 - - - -
19/05:00am 22.2 W 9 11 1012.8 - 0.0 - Partly cloudy 10 - - - -
19/04:30am 21.3 W 7 9 1012.5 - 0.0 - - 10 - - - -
19/04:00am 20.9 WNW 6 7 1012.3 - 0.0 - - 10 - - - -
19/03:30am 21.3 W 7 8 1012.2 - 0.0 - - 10 - - - -
19/03:00am 21.5 W 6 8 1012.1 - 0.0 - - 10 - - - -
19/02:30am 21.9 W 7 8 1012.3 - 0.0 - - 10 - - - -

Other Formats:

Comma delimited format used in spreadsheet applications
http://www.bom.gov.au/fwo/IDW60701/IDW60701.94312.axf

JavaScript Object Notation format (JSON) in row-major order
http://www.bom.gov.au/fwo/IDW60701/IDW60701.94312.json